Atlantida Azul — CSYG2 — position and weather

sailwx.info

Track history (hours):
 
Tides and Currents Weather Stations Pressure Air Temp Water Temp Dewpoint Dewpoint Depression Visibility Wind Speed Wind Dir Waves Ship Positions

Atlantida Azul

Last reported at 2016-Apr-30 13:19 UTC. Time now 2016-May-04 11:43 UTC.
Position N 37°56' W 008°51'.

Length 16 m.

Type: Pilot. MMSI: 263672880.

Date/timePositionNaut miles runAvg speedWind from/ knotsBaromVisibWave heightAir tempDewpointWater temp
2016-Apr-30 13:19N 37°56' W 008°51'1 0.0
2016-Apr-28 10:33N 37°56' W 008°52'1 1.1
2016-Apr-28 09:31N 37°57' W 008°52'2 0.1
2016-Apr-27 01:33N 37°55' W 008°51'1 0.9
2016-Apr-27 00:33N 37°56' W 008°51'0 0.2
2016-Apr-26 23:33N 37°56' W 008°51'0 0.2
2016-Apr-26 22:32N 37°56' W 008°51'2 0.4
2016-Apr-26 18:33N 37°54' W 008°51'0 0.5
2016-Apr-26 17:33N 37°55' W 008°51'3 1.3
2016-Apr-26 15:33N 37°57' W 008°53'4 3.9
2016-Apr-26 14:32N 37°53' W 008°50'1 0.4
2016-Apr-26 10:33N 37°55' W 008°51'1 0.7
2016-Apr-26 09:33N 37°55' W 008°51'2 0.4
2016-Apr-26 03:31N 37°57' W 008°53'2 0.7
2016-Apr-26 00:32N 37°56' W 008°51'1 1.0
2016-Apr-25 23:31N 37°57' W 008°52'1 1.4
2016-Apr-25 22:33N 37°56' W 008°53'1 1.4
2016-Apr-25 21:32N 37°57' W 008°52'2 1.8
2016-Apr-25 20:33N 37°55' W 008°51'2 2.2
2016-Apr-25 19:33N 37°57' W 008°53'1 0.5
2016-Apr-25 17:24N 37°57' W 008°52'0 0.0
2016-Apr-25 14:17N 37°57' W 008°52'3 1.1
2016-Apr-25 11:33N 37°54' W 008°50'3 1.4
2016-Apr-25 09:23N 37°57' W 008°52'1 1.2
2016-Apr-25 08:31N 37°56' W 008°51'1 0.8
2016-Apr-25 07:08N 37°57' W 008°52'0 0.0
2016-Apr-25 06:29N 37°57' W 008°52'2 1.7
2016-Apr-25 05:33N 37°56' W 008°53'2 1.3
2016-Apr-25 04:20N 37°57' W 008°52'2 2.8
2016-Apr-25 03:33N 37°55' W 008°54'  
2016-Apr-22 15:33N 37°56' W 008°52'1 0.0
2016-Apr-21 09:23N 37°56' W 008°51'  
Track history (hours):
 
Tides and Currents Weather Stations Pressure Air Temp Water Temp Dewpoint Dewpoint Depression Visibility Wind Speed Wind Dir Waves Ship Positions

Atlantida Azul

Last reported at 2016-Apr-30 13:19 UTC. Time now 2016-May-04 11:43 UTC.
Position N 37°56' W 008°51'.

Length 16 m.

Type: Pilot. MMSI: 263672880.

Date/timePositionNaut miles runAvg speedWind from/ knotsBaromVisibWave heightAir tempDewpointWater temp
2016-Apr-30 13:19N 37°56' W 008°51'1 0.0
2016-Apr-28 10:33N 37°56' W 008°52'1 1.1
2016-Apr-28 09:31N 37°57' W 008°52'2 0.1
2016-Apr-27 01:33N 37°55' W 008°51'1 0.9
2016-Apr-27 00:33N 37°56' W 008°51'0 0.2
2016-Apr-26 23:33N 37°56' W 008°51'0 0.2
2016-Apr-26 22:32N 37°56' W 008°51'2 0.4
2016-Apr-26 18:33N 37°54' W 008°51'0 0.5
2016-Apr-26 17:33N 37°55' W 008°51'3 1.3
2016-Apr-26 15:33N 37°57' W 008°53'4 3.9
2016-Apr-26 14:32N 37°53' W 008°50'1 0.4
2016-Apr-26 10:33N 37°55' W 008°51'1 0.7
2016-Apr-26 09:33N 37°55' W 008°51'2 0.4
2016-Apr-26 03:31N 37°57' W 008°53'2 0.7
2016-Apr-26 00:32N 37°56' W 008°51'1 1.0
2016-Apr-25 23:31N 37°57' W 008°52'1 1.4
2016-Apr-25 22:33N 37°56' W 008°53'1 1.4
2016-Apr-25 21:32N 37°57' W 008°52'2 1.8
2016-Apr-25 20:33N 37°55' W 008°51'2 2.2
2016-Apr-25 19:33N 37°57' W 008°53'1 0.5
2016-Apr-25 17:24N 37°57' W 008°52'0 0.0
2016-Apr-25 14:17N 37°57' W 008°52'3 1.1
2016-Apr-25 11:33N 37°54' W 008°50'3 1.4
2016-Apr-25 09:23N 37°57' W 008°52'1 1.2
2016-Apr-25 08:31N 37°56' W 008°51'1 0.8
2016-Apr-25 07:08N 37°57' W 008°52'0 0.0
2016-Apr-25 06:29N 37°57' W 008°52'2 1.7
2016-Apr-25 05:33N 37°56' W 008°53'2 1.3
2016-Apr-25 04:20N 37°57' W 008°52'2 2.8
2016-Apr-25 03:33N 37°55' W 008°54'  
2016-Apr-22 15:33N 37°56' W 008°52'1 0.0
2016-Apr-21 09:23N 37°56' W 008°51'  

Dump ship's entire track history